Time;durP1;ratioP1;P1;durP2;ratioP2;P2;SDS_P1;SDS_P2;PMS_P1;PMS_P2;Temp;Humidity;BMP_temperature;BMP_pressure;BME280_temperature;BME280_humidity;BME280_pressure;Samples;Min_cycle;Max_cycle;Signal;HPM_P1;HPM_P2
2023/05/23 00:02:24;;;;;;;;;;;;;;;;;;5066239;28;19912;-39
2023/05/23 05:08:54;;;;;;;;;;;;;;;;;;5062254;28;19948;-39
2023/05/23 05:11:20;;;;;;;;;;;;;;;;;;5047675;28;19952;-39
2023/05/23 05:13:46;;;;;;;;;;;;;;;;;;5058381;28;19908;-39
2023/05/23 05:16:12;;;;;;;;;;;;;;;;;;5068757;28;19935;-39
2023/05/23 05:18:39;;;;;;;;;;;;;;;;;;5069084;28;19916;-39
2023/05/23 05:21:05;;;;;;;;;;;;;;;;;;5054815;28;19916;-39
2023/05/23 05:23:32;;;;;;;;;;;;;;;;;;5068735;28;21115;-39
2023/05/23 05:25:58;;;;;;;;;;;;;;;;;;5064180;28;20049;-39
2023/05/23 05:28:24;;;;;;;;;;;;;;;;;;5050401;28;20901;-39
2023/05/23 05:30:53;;;;;;;;;;;;;;;;;;5062654;28;19917;-39
2023/05/23 05:33:19;;;;;;;;;;;;;;;;;;5068807;28;20386;-39
2023/05/23 05:35:45;;;;;;;;;;;;;;;;;;5068645;28;19920;-39
2023/05/23 05:38:11;;;;;;;;;;;;;;;;;;5068630;28;19913;-39
2023/05/23 05:40:37;;;;;;;;;;;;;;;;;;5069134;28;20290;-39
2023/05/23 05:43:03;;;;;;;;;;;;;;;;;;5062423;28;19913;-39
2023/05/23 05:45:29;;;;;;;;;;;;;;;;;;5049245;28;19968;-39
2023/05/23 05:47:55;;;;;;;;;;;;;;;;;;5070679;28;19916;-39
2023/05/23 05:50:21;;;;;;;;;;;;;;;;;;5072625;28;19935;-39
2023/05/23 05:52:47;;;;;;;;;;;;;;;;;;5072546;28;19909;-39
2023/05/23 05:55:13;;;;;;;;;;;;;;;;;;5071958;28;19912;-39
2023/05/23 05:57:39;;;;;;;;;;;;;;;;;;5071953;28;19981;-39
2023/05/23 06:00:11;;;;;;;;;;;;;;;;;;5072085;28;19965;-39
2023/05/23 06:02:37;;;;;;;;;;;;;;;;;;5066127;28;19912;-39
2023/05/23 06:05:03;;;;;;;;;;;;;;;;;;5073205;28;19999;-39
2023/05/23 06:07:29;;;;;;;;;;;;;;;;;;5062032;28;20379;-39
2023/05/23 06:09:55;;;;;;;;;;;;;;;;;;5058112;28;19963;-40
2023/05/23 06:12:21;;;;;;;;;;;;;;;;;;5072155;28;19952;-40
2023/05/23 06:14:47;;;;;;;;;;;;;;;;;;5069060;28;19924;-40
2023/05/23 06:17:13;;;;;;;;;;;;;;;;;;5063842;28;19919;-39
2023/05/23 06:19:39;;;;;;;;;;;;;;;;;;5059136;28;19913;-40
2023/05/23 06:22:05;;;;;;;;;;;;;;;;;;5052816;28;19913;-40
2023/05/23 06:24:31;;;;;;;;;;;;;;;;;;5052957;28;19913;-39
2023/05/23 06:26:57;;;;;;;;;;;;;;;;;;5071570;28;19920;-39
2023/05/23 06:29:23;;;;;;;;;;;;;;;;;;5071169;28;19935;-40
2023/05/23 06:31:49;;;;;;;;;;;;;;;;;;5077704;28;19916;-40
2023/05/23 06:34:14;;;;;;;;;;;;;;;;;;5079825;28;19916;-39
2023/05/23 06:36:41;;;;;;;;;;;;;;;;;;5055640;28;19955;-39
2023/05/23 06:39:08;;;;;;;;;;;;;;;;;;5053133;28;20506;-40
2023/05/23 06:41:34;;;;;;;;;;;;;;;;;;5051578;28;20017;-39
2023/05/23 06:44:00;;;;;;;;;;;;;;;;;;5056744;28;20011;-40
2023/05/23 06:46:26;;;;;;;;;;;;;;;;;;5067252;28;20093;-40
2023/05/23 06:48:52;;;;;;;;;;;;;;;;;;5049672;28;19938;-40
2023/05/23 06:51:18;;;;;;;;;;;;;;;;;;5065975;28;19913;-40
2023/05/23 06:53:44;;;;;;;;;;;;;;;;;;5069850;28;19909;-40
2023/05/23 06:56:10;;;;;;;;;;;;;;;;;;5070152;28;19908;-40
2023/05/23 06:58:36;;;;;;;;;;;;;;;;;;5068311;28;19908;-40
2023/05/23 07:01:02;;;;;;;;;;;;;;;;;;5069864;28;20383;-40
2023/05/23 07:03:27;;;;;;;;;;;;;;;;;;5069414;28;19908;-40
2023/05/23 07:05:53;;;;;;;;;;;;;;;;;;5069594;28;20007;-40
2023/05/23 07:08:19;;;;;;;;;;;;;;;;;;5065172;28;19921;-40
2023/05/23 07:10:45;;;;;;;;;;;;;;;;;;5048218;28;20446;-40
2023/05/23 07:13:11;;;;;;;;;;;;;;;;;;5050954;28;19966;-40
2023/05/23 07:15:37;;;;;;;;;;;;;;;;;;5068118;28;20397;-40
2023/05/23 07:18:03;;;;;;;;;;;;;;;;;;5067545;28;19940;-40
2023/05/23 07:20:30;;;;;;;;;;;;;;;;;;5067564;28;19963;-40
2023/05/23 07:22:56;;;;;;;;;;;;;;;;;;5067467;28;19916;-40
2023/05/23 07:25:22;;;;;;;;;;;;;;;;;;5067957;28;19919;-40
2023/05/23 07:27:48;;;;;;;;;;;;;;;;;;5067897;28;19912;-40
2023/05/23 07:30:15;;;;;;;;;;;;;;;;;;5067732;28;19912;-40
2023/05/23 07:32:41;;;;;;;;;;;;;;;;;;5067459;28;19908;-40
2023/05/23 07:35:07;;;;;;;;;;;;;;;;;;5067386;28;19924;-40
2023/05/23 07:37:32;;;;;;;;;;;;;;;;;;5067222;28;19908;-40
2023/05/23 07:39:59;;;;;;;;;;;;;;;;;;5067436;28;19908;-40
2023/05/23 07:42:25;;;;;;;;;;;;;;;;;;5067075;28;19912;-40
2023/05/23 07:44:51;;;;;;;;;;;;;;;;;;5067973;28;19935;-40
2023/05/23 07:47:17;;;;;;;;;;;;;;;;;;5066975;28;19979;-40
2023/05/23 07:49:43;;;;;;;;;;;;;;;;;;5066981;28;20294;-40
2023/05/23 07:52:09;;;;;;;;;;;;;;;;;;5067367;28;19915;-40
2023/05/23 07:54:35;;;;;;;;;;;;;;;;;;5067006;28;19912;-40
2023/05/23 07:57:01;;;;;;;;;;;;;;;;;;5066924;28;19912;-40
2023/05/23 07:59:28;;;;;;;;;;;;;;;;;;5066416;28;19909;-39
2023/05/23 08:01:54;;;;;;;;;;;;;;;;;;5066779;28;19918;-40
2023/05/23 08:04:20;;;;;;;;;;;;;;;;;;5067391;28;20032;-40
2023/05/23 08:06:46;;;;;;;;;;;;;;;;;;5066781;28;19962;-40
2023/05/23 08:09:12;;;;;;;;;;;;;;;;;;5066633;28;19940;-40
2023/05/23 08:11:38;;;;;;;;;;;;;;;;;;5066524;28;19960;-40
2023/05/23 08:14:04;;;;;;;;;;;;;;;;;;5066504;28;20472;-40
2023/05/23 08:16:30;;;;;;;;;;;;;;;;;;5066274;28;19920;-40
2023/05/23 08:18:56;;;;;;;;;;;;;;;;;;5066260;28;19912;-40
2023/05/23 08:21:22;;;;;;;;;;;;;;;;;;5067004;28;20411;-40
2023/05/23 08:23:48;;;;;;;;;;;;;;;;;;5066536;28;19909;-40
2023/05/23 08:26:14;;;;;;;;;;;;;;;;;;5066384;28;19952;-40
2023/05/23 08:28:40;;;;;;;;;;;;;;;;;;5066067;28;19960;-40
2023/05/23 08:31:06;;;;;;;;;;;;;;;;;;5066239;28;19958;-40
2023/05/23 08:33:32;;;;;;;;;;;;;;;;;;5066136;28;19909;-40
2023/05/23 08:35:58;;;;;;;;;;;;;;;;;;5066381;28;19986;-40
2023/05/23 08:38:25;;;;;;;;;;;;;;;;;;5065994;28;20387;-40
2023/05/23 08:40:51;;;;;;;;;;;;;;;;;;5066547;28;19958;-40
2023/05/23 08:43:18;;;;;;;;;;;;;;;;;;5066096;28;20322;-40
2023/05/23 08:45:45;;;;;;;;;;;;;;;;;;5065933;28;19920;-40
2023/05/23 08:48:12;;;;;;;;;;;;;;;;;;5065912;28;19927;-40
2023/05/23 08:50:40;;;;;;;;;;;;;;;;;;5065058;28;21344;-40
2023/05/23 08:53:07;;;;;;;;;;;;;;;;;;5066092;28;19913;-40
2023/05/23 08:55:33;;;;;;;;;;;;;;;;;;5065770;28;19909;-40
2023/05/23 08:57:59;;;;;;;;;;;;;;;;;;5066123;28;19909;-40
2023/05/23 09:00:25;;;;;;;;;;;;;;;;;;5065627;28;19913;-40
2023/05/23 09:02:51;;;;;;;;;;;;;;;;;;5066320;28;19917;-40
2023/05/23 09:05:17;;;;;;;;;;;;;;;;;;5059019;28;19909;-40
2023/05/23 09:07:43;;;;;;;;;;;;;;;;;;5053881;28;19955;-40
2023/05/23 09:10:09;;;;;;;;;;;;;;;;;;5065980;28;19952;-40
2023/05/23 09:12:36;;;;;;;;;;;;;;;;;;5048476;28;19917;-40
2023/05/23 09:15:01;;;;;;;;;;;;;;;;;;5046099;28;20420;-40
2023/05/23 09:17:27;;;;;;;;;;;;;;;;;;5045532;28;19980;-40
2023/05/23 09:19:53;;;;;;;;;;;;;;;;;;5045705;28;19920;-40
2023/05/23 09:22:19;;;;;;;;;;;;;;;;;;5044919;28;20390;-40
2023/05/23 09:24:45;;;;;;;;;;;;;;;;;;5045639;28;19920;-40
2023/05/23 09:27:11;;;;;;;;;;;;;;;;;;5045434;28;20709;-40
2023/05/23 09:29:38;;;;;;;;;;;;;;;;;;5045950;28;19963;-40
2023/05/23 09:32:04;;;;;;;;;;;;;;;;;;5046033;28;19909;-40
2023/05/23 09:34:30;;;;;;;;;;;;;;;;;;5046080;28;19936;-40
2023/05/23 09:36:56;;;;;;;;;;;;;;;;;;5045605;28;20600;-40
2023/05/23 09:39:22;;;;;;;;;;;;;;;;;;5043870;28;19940;-40
2023/05/23 09:41:48;;;;;;;;;;;;;;;;;;5045312;28;19916;-40
2023/05/23 09:44:13;;;;;;;;;;;;;;;;;;5045413;28;19940;-40
2023/05/23 09:46:39;;;;;;;;;;;;;;;;;;5045938;28;20363;-40
2023/05/23 09:49:06;;;;;;;;;;;;;;;;;;5045298;28;20023;-40
2023/05/23 09:51:32;;;;;;;;;;;;;;;;;;5046126;28;20009;-40
2023/05/23 09:53:58;;;;;;;;;;;;;;;;;;5045366;28;19955;-40
2023/05/23 09:56:24;;;;;;;;;;;;;;;;;;5045073;28;19954;-40
2023/05/23 09:58:50;;;;;;;;;;;;;;;;;;5045262;28;19916;-40
2023/05/23 10:01:16;;;;;;;;;;;;;;;;;;5045216;28;20050;-40
2023/05/23 10:03:42;;;;;;;;;;;;;;;;;;5045553;28;20368;-40
2023/05/23 10:06:09;;;;;;;;;;;;;;;;;;5045100;28;19995;-40
2023/05/23 10:08:35;;;;;;;;;;;;;;;;;;5045392;28;19931;-40
2023/05/23 10:11:01;;;;;;;;;;;;;;;;;;5045830;28;20632;-40
2023/05/23 10:13:27;;;;;;;;;;;;;;;;;;5045050;28;20172;-40
2023/05/23 10:15:53;;;;;;;;;;;;;;;;;;5045286;28;19912;-40
2023/05/23 10:18:20;;;;;;;;;;;;;;;;;;5044913;28;19915;-40
2023/05/23 10:20:45;;;;;;;;;;;;;;;;;;5045090;28;20311;-40
2023/05/23 10:23:12;;;;;;;;;;;;;;;;;;5045066;28;19917;-40
2023/05/23 10:25:38;;;;;;;;;;;;;;;;;;5053878;28;19912;-39
2023/05/23 10:28:03;;;;;;;;;;;;;;;;;;5062388;28;19917;-40
2023/05/23 10:30:29;;;;;;;;;;;;;;;;;;5060157;28;19958;-39
2023/05/23 10:32:55;;;;;;;;;;;;;;;;;;5066399;28;19916;-40
2023/05/23 10:35:21;;;;;;;;;;;;;;;;;;5076046;28;19974;-40
2023/05/23 10:37:47;;;;;;;;;;;;;;;;;;5071059;28;19916;-40
2023/05/23 10:40:13;;;;;;;;;;;;;;;;;;5069444;28;20410;-40
2023/05/23 10:42:39;;;;;;;;;;;;;;;;;;5064985;28;19960;-40
2023/05/23 10:45:05;;;;;;;;;;;;;;;;;;5057896;28;19916;-39
2023/05/23 10:47:33;;;;;;;;;;;;;;;;;;5070171;28;20405;-40
2023/05/23 10:49:58;;;;;;;;;;;;;;;;;;5052863;28;19913;-40
2023/05/23 10:52:25;;;;;;;;;;;;;;;;;;5049790;28;19909;-40
2023/05/23 10:54:51;;;;;;;;;;;;;;;;;;5062129;28;20011;-40
2023/05/23 10:57:17;;;;;;;;;;;;;;;;;;5058189;28;20003;-40
2023/05/23 10:59:43;;;;;;;;;;;;;;;;;;5049663;28;20019;-40
2023/05/23 11:02:09;;;;;;;;;;;;;;;;;;5050540;28;20462;-40
2023/05/23 11:04:35;;;;;;;;;;;;;;;;;;5059431;28;19919;-40
2023/05/23 11:07:01;;;;;;;;;;;;;;;;;;5069480;28;19964;-40
2023/05/23 11:09:27;;;;;;;;;;;;;;;;;;5068344;28;19964;-40
2023/05/23 11:11:53;;;;;;;;;;;;;;;;;;5066785;28;19917;-40
2023/05/23 11:14:19;;;;;;;;;;;;;;;;;;5059227;28;20006;-40
2023/05/23 11:16:45;;;;;;;;;;;;;;;;;;5055312;28;19924;-40
2023/05/23 11:19:11;;;;;;;;;;;;;;;;;;5064932;28;19916;-40
2023/05/23 11:21:37;;;;;;;;;;;;;;;;;;5058812;28;19924;-40
2023/05/23 11:24:03;;;;;;;;;;;;;;;;;;5063242;28;19908;-40
2023/05/23 11:26:29;;;;;;;;;;;;;;;;;;5068176;28;20070;-40
2023/05/23 11:28:56;;;;;;;;;;;;;;;;;;5056798;28;19926;-40
2023/05/23 11:31:23;;;;;;;;;;;;;;;;;;5058831;28;19917;-39
2023/05/23 11:33:49;;;;;;;;;;;;;;;;;;5049786;28;19909;-40
2023/05/23 11:36:15;;;;;;;;;;;;;;;;;;5068085;28;19916;-39
2023/05/23 11:38:41;;;;;;;;;;;;;;;;;;5076636;28;20360;-40
2023/05/23 11:41:07;;;;;;;;;;;;;;;;;;5076183;28;19999;-40
2023/05/23 11:43:32;;;;;;;;;;;;;;;;;;5068860;28;19977;-40
2023/05/23 11:45:58;;;;;;;;;;;;;;;;;;5057033;28;19913;-40
2023/05/23 11:48:24;;;;;;;;;;;;;;;;;;5062480;28;19916;-40
2023/05/23 11:50:50;;;;;;;;;;;;;;;;;;5088821;28;19908;-40
2023/05/23 11:53:19;;;;;;;;;;;;;;;;;;5076913;28;19958;-40
2023/05/23 11:55:45;;;;;;;;;;;;;;;;;;5067980;28;19913;-40
2023/05/23 11:58:12;;;;;;;;;;;;;;;;;;5059134;28;19919;-40
2023/05/23 12:00:38;;;;;;;;;;;;;;;;;;5055098;28;20130;-40
2023/05/23 12:03:04;;;;;;;;;;;;;;;;;;5050185;28;19976;-40
2023/05/23 12:05:30;;;;;;;;;;;;;;;;;;5066803;28;19999;-40
2023/05/23 12:07:56;;;;;;;;;;;;;;;;;;5062710;28;19928;-40
2023/05/23 12:10:22;;;;;;;;;;;;;;;;;;5063425;28;19920;-40
2023/05/23 12:12:48;;;;;;;;;;;;;;;;;;5050778;28;20018;-40
2023/05/23 12:15:14;;;;;;;;;;;;;;;;;;5048551;28;19909;-40
2023/05/23 12:17:40;;;;;;;;;;;;;;;;;;5047965;28;19920;-40
2023/05/23 12:20:06;;;;;;;;;;;;;;;;;;5067503;28;20283;-40
2023/05/23 12:22:32;;;;;;;;;;;;;;;;;;5066958;28;19959;-40
2023/05/23 12:24:58;;;;;;;;;;;;;;;;;;5067105;28;19944;-40
2023/05/23 12:27:24;;;;;;;;;;;;;;;;;;5067693;28;20397;-40
2023/05/23 12:29:51;;;;;;;;;;;;;;;;;;5067947;28;19999;-40
2023/05/23 12:32:17;;;;;;;;;;;;;;;;;;5068524;28;19914;-40
2023/05/23 12:34:43;;;;;;;;;;;;;;;;;;5067122;28;19916;-39
2023/05/23 12:37:09;;;;;;;;;;;;;;;;;;5047596;28;19955;-39
2023/05/23 12:39:34;;;;;;;;;;;;;;;;;;5047565;28;19908;-40
2023/05/23 12:42:01;;;;;;;;;;;;;;;;;;5064999;28;19919;-40
2023/05/23 12:44:27;;;;;;;;;;;;;;;;;;5062691;28;19912;-39
2023/05/23 12:46:53;;;;;;;;;;;;;;;;;;5070543;28;19916;-40
2023/05/23 12:49:20;;;;;;;;;;;;;;;;;;5067107;28;19908;-40
2023/05/23 12:51:46;;;;;;;;;;;;;;;;;;5051928;28;19917;-39
2023/05/23 12:54:12;;;;;;;;;;;;;;;;;;5061554;28;19969;-40
2023/05/23 12:56:38;;;;;;;;;;;;;;;;;;5068209;28;20074;-40
2023/05/23 12:59:04;;;;;;;;;;;;;;;;;;5060016;28;19935;-40
2023/05/23 13:01:32;;;;;;;;;;;;;;;;;;5065771;28;20286;-39
2023/05/23 13:03:58;;;;;;;;;;;;;;;;;;5065808;28;19958;-40
2023/05/23 13:06:24;;;;;;;;;;;;;;;;;;5067903;28;20005;-40
2023/05/23 13:08:51;;;;;;;;;;;;;;;;;;5058133;28;19917;-39
2023/05/23 13:11:17;;;;;;;;;;;;;;;;;;5057118;28;19916;-40
2023/05/23 13:13:44;;;;;;;;;;;;;;;;;;5062002;28;19939;-40
2023/05/23 13:16:10;;;;;;;;;;;;;;;;;;5067986;28;19913;-40
2023/05/23 13:18:36;;;;;;;;;;;;;;;;;;5068040;28;19913;-40
2023/05/23 13:21:02;;;;;;;;;;;;;;;;;;5067965;28;19976;-40
2023/05/23 13:23:28;;;;;;;;;;;;;;;;;;5068092;28;19912;-40
2023/05/23 13:25:56;;;;;;;;;;;;;;;;;;5062038;28;20003;-40
2023/05/23 13:28:22;;;;;;;;;;;;;;;;;;5056604;28;19917;-40
2023/05/23 13:30:48;;;;;;;;;;;;;;;;;;5048599;28;19913;-40
2023/05/23 13:33:14;;;;;;;;;;;;;;;;;;5065354;28;19908;-39
2023/05/23 13:35:40;;;;;;;;;;;;;;;;;;5067517;28;19909;-40
2023/05/23 13:38:06;;;;;;;;;;;;;;;;;;5067718;28;19974;-40
2023/05/23 13:40:32;;;;;;;;;;;;;;;;;;5067633;28;19909;-40
2023/05/23 13:42:58;;;;;;;;;;;;;;;;;;5065439;28;19928;-40
2023/05/23 13:45:24;;;;;;;;;;;;;;;;;;5083505;28;19930;-40
2023/05/23 13:47:50;;;;;;;;;;;;;;;;;;5068865;28;19923;-39
2023/05/23 13:50:16;;;;;;;;;;;;;;;;;;5059157;28;20010;-40
2023/05/23 13:52:42;;;;;;;;;;;;;;;;;;5067849;28;19934;-40
2023/05/23 13:55:08;;;;;;;;;;;;;;;;;;5066670;28;19920;-40
2023/05/23 13:57:34;;;;;;;;;;;;;;;;;;5058103;28;19913;-40
2023/05/23 14:00:01;;;;;;;;;;;;;;;;;;5047415;28;19916;-40
2023/05/23 14:02:30;;;;;;;;;;;;;;;;;;5051562;28;19944;-40
2023/05/23 14:04:57;;;;;;;;;;;;;;;;;;5059751;28;19916;-40
2023/05/23 14:07:23;;;;;;;;;;;;;;;;;;5066138;28;20015;-39
2023/05/23 14:09:49;;;;;;;;;;;;;;;;;;5059568;28;20427;-40
2023/05/23 14:12:15;;;;;;;;;;;;;;;;;;5067019;28;19935;-40
2023/05/23 14:14:41;;;;;;;;;;;;;;;;;;5071233;28;20410;-40
2023/05/23 14:17:07;;;;;;;;;;;;;;;;;;5071050;28;19951;-39
2023/05/23 14:19:33;;;;;;;;;;;;;;;;;;5071004;28;20031;-40
2023/05/23 14:21:59;;;;;;;;;;;;;;;;;;5085194;28;19916;-40
2023/05/23 14:24:24;;;;;;;;;;;;;;;;;;5091175;28;19930;-40
2023/05/23 14:26:51;;;;;;;;;;;;;;;;;;5091225;28;19908;-39
2023/05/23 14:29:17;;;;;;;;;;;;;;;;;;5091718;28;20391;-40
2023/05/23 14:31:43;;;;;;;;;;;;;;;;;;5091352;28;20524;-40
2023/05/23 14:34:09;;;;;;;;;;;;;;;;;;5078256;28;19921;-39
2023/05/23 14:36:35;;;;;;;;;;;;;;;;;;5070981;28;19916;-40
2023/05/23 14:39:02;;;;;;;;;;;;;;;;;;5070366;28;19913;-40
2023/05/23 14:41:30;;;;;;;;;;;;;;;;;;5070749;28;19948;-39
2023/05/23 14:43:56;;;;;;;;;;;;;;;;;;5070825;28;19986;-39
2023/05/23 14:46:22;;;;;;;;;;;;;;;;;;5070574;28;19908;-40
2023/05/23 14:48:48;;;;;;;;;;;;;;;;;;5071106;28;19997;-40
2023/05/23 14:51:14;;;;;;;;;;;;;;;;;;5070519;28;19913;-39
2023/05/23 14:53:40;;;;;;;;;;;;;;;;;;5071630;28;19928;-40
2023/05/23 14:56:06;;;;;;;;;;;;;;;;;;5090857;28;20438;-40
2023/05/23 14:58:32;;;;;;;;;;;;;;;;;;5090559;28;19916;-40
2023/05/23 15:00:58;;;;;;;;;;;;;;;;;;5090570;28;19959;-40
2023/05/23 15:03:24;;;;;;;;;;;;;;;;;;5070519;28;19916;-40
2023/05/23 15:05:50;;;;;;;;;;;;;;;;;;5070726;28;19977;-39
2023/05/23 15:08:16;;;;;;;;;;;;;;;;;;5070715;28;19920;-39
2023/05/23 15:10:43;;;;;;;;;;;;;;;;;;5070241;28;19943;-39
2023/05/23 15:13:09;;;;;;;;;;;;;;;;;;5066290;28;19920;-39
2023/05/23 15:15:39;;;;;;;;;;;;;;;;;;5070142;28;20436;-40
2023/05/23 15:18:08;;;;;;;;;;;;;;;;;;5070458;28;19931;-39
2023/05/23 15:20:35;;;;;;;;;;;;;;;;;;5062378;28;20306;-40
2023/05/23 15:23:00;;;;;;;;;;;;;;;;;;5050100;28;19909;-39
2023/05/23 15:25:26;;;;;;;;;;;;;;;;;;5058612;28;19912;-40
2023/05/23 15:27:52;;;;;;;;;;;;;;;;;;5068771;28;19920;-40
2023/05/23 15:30:18;;;;;;;;;;;;;;;;;;5069337;28;19919;-39
2023/05/23 15:32:44;;;;;;;;;;;;;;;;;;5068258;28;19912;-39
2023/05/23 15:35:10;;;;;;;;;;;;;;;;;;5055492;28;19967;-39
2023/05/23 15:37:37;;;;;;;;;;;;;;;;;;5060787;28;19951;-40
2023/05/23 15:40:03;;;;;;;;;;;;;;;;;;5060541;28;20022;-40
2023/05/23 15:42:29;;;;;;;;;;;;;;;;;;5069591;28;19912;-40
2023/05/23 15:44:54;;;;;;;;;;;;;;;;;;5068693;28;19919;-40
2023/05/23 15:47:20;;;;;;;;;;;;;;;;;;5069457;28;20025;-40
2023/05/23 15:49:46;;;;;;;;;;;;;;;;;;5067916;28;19912;-41
2023/05/23 15:52:12;;;;;;;;;;;;;;;;;;5067256;28;19909;-41
2023/05/23 15:54:38;;;;;;;;;;;;;;;;;;5055245;28;20223;-41
2023/05/23 15:57:04;;;;;;;;;;;;;;;;;;5047490;28;19924;-40
2023/05/23 15:59:30;;;;;;;;;;;;;;;;;;5046647;28;19913;-40
2023/05/23 16:01:56;;;;;;;;;;;;;;;;;;5047092;28;19919;-40
2023/05/23 16:04:22;;;;;;;;;;;;;;;;;;5063094;28;20375;-40
2023/05/23 16:06:48;;;;;;;;;;;;;;;;;;5078639;28;19916;-40
2023/05/23 16:09:14;;;;;;;;;;;;;;;;;;5066755;28;20568;-40
2023/05/23 16:11:40;;;;;;;;;;;;;;;;;;5065620;28;19921;-40
2023/05/23 16:14:06;;;;;;;;;;;;;;;;;;5062593;28;19917;-40
2023/05/23 16:16:32;;;;;;;;;;;;;;;;;;5059152;28;19925;-40
2023/05/23 16:18:57;;;;;;;;;;;;;;;;;;5050342;28;20351;-41
2023/05/23 16:21:24;;;;;;;;;;;;;;;;;;5047977;28;20314;-40
2023/05/23 16:23:50;;;;;;;;;;;;;;;;;;5058333;28;20334;-41
2023/05/23 16:26:18;;;;;;;;;;;;;;;;;;5061784;28;19913;-40
2023/05/23 16:28:44;;;;;;;;;;;;;;;;;;5063146;28;19921;-40
2023/05/23 16:31:12;;;;;;;;;;;;;;;;;;5063296;28;19917;-40
2023/05/23 16:33:38;;;;;;;;;;;;;;;;;;5062949;28;19919;-40
2023/05/23 16:36:04;;;;;;;;;;;;;;;;;;5066552;28;19914;-40
2023/05/23 16:38:30;;;;;;;;;;;;;;;;;;5065926;28;19909;-40
2023/05/23 16:40:56;;;;;;;;;;;;;;;;;;5066132;28;20003;-40
2023/05/23 16:43:23;;;;;;;;;;;;;;;;;;5066609;28;20008;-40
2023/05/23 16:45:50;;;;;;;;;;;;;;;;;;5059745;28;19917;-40
2023/05/23 16:48:16;;;;;;;;;;;;;;;;;;5067961;28;19919;-40
2023/05/23 16:50:41;;;;;;;;;;;;;;;;;;5077159;28;19913;-41
2023/05/23 16:53:07;;;;;;;;;;;;;;;;;;5064674;28;20463;-40
2023/05/23 16:55:34;;;;;;;;;;;;;;;;;;5065287;28;19958;-41
2023/05/23 16:58:00;;;;;;;;;;;;;;;;;;5065979;28;19919;-40
2023/05/23 17:00:26;;;;;;;;;;;;;;;;;;5065237;28;20928;-41
2023/05/23 17:02:52;;;;;;;;;;;;;;;;;;5057502;28;20011;-41
2023/05/23 17:05:18;;;;;;;;;;;;;;;;;;5045756;28;19916;-41
2023/05/23 17:07:44;;;;;;;;;;;;;;;;;;5057781;28;19966;-40
2023/05/23 17:10:10;;;;;;;;;;;;;;;;;;5044534;28;19924;-41
2023/05/23 17:12:36;;;;;;;;;;;;;;;;;;5059249;28;19956;-40
2023/05/23 17:15:03;;;;;;;;;;;;;;;;;;5039175;28;20391;-40
2023/05/23 17:17:30;;;;;;;;;;;;;;;;;;5026757;28;19939;-40
2023/05/23 17:19:56;;;;;;;;;;;;;;;;;;5045221;28;19916;-40
2023/05/23 17:22:22;;;;;;;;;;;;;;;;;;5044276;28;20307;-40
2023/05/23 17:24:47;;;;;;;;;;;;;;;;;;5060575;28;19920;-40
2023/05/23 17:27:13;;;;;;;;;;;;;;;;;;5052903;28;20430;-41
2023/05/23 17:29:40;;;;;;;;;;;;;;;;;;5042829;28;20011;-41
2023/05/23 17:32:07;;;;;;;;;;;;;;;;;;5062736;28;19934;-40
2023/05/23 17:34:33;;;;;;;;;;;;;;;;;;5064241;28;19912;-40
2023/05/23 17:36:59;;;;;;;;;;;;;;;;;;5061162;28;19924;-40
2023/05/23 17:39:25;;;;;;;;;;;;;;;;;;5058582;28;20010;-40
2023/05/23 17:41:51;;;;;;;;;;;;;;;;;;5049354;28;20306;-41
2023/05/23 17:44:17;;;;;;;;;;;;;;;;;;5071478;28;19917;-40
2023/05/23 17:46:44;;;;;;;;;;;;;;;;;;5067954;28;19909;-40
2023/05/23 17:49:09;;;;;;;;;;;;;;;;;;5061596;28;19921;-41
2023/05/23 17:51:35;;;;;;;;;;;;;;;;;;5052920;28;20099;-40
2023/05/23 17:54:03;;;;;;;;;;;;;;;;;;5030005;28;20306;-41
2023/05/23 17:56:29;;;;;;;;;;;;;;;;;;5063925;28;20125;-41
2023/05/23 17:58:55;;;;;;;;;;;;;;;;;;5056944;28;19917;-41
2023/05/23 18:01:22;;;;;;;;;;;;;;;;;;5058482;28;19989;-41
2023/05/23 18:03:48;;;;;;;;;;;;;;;;;;5063465;28;19912;-40
2023/05/23 18:06:14;;;;;;;;;;;;;;;;;;5038006;28;20314;-41
2023/05/23 18:08:40;;;;;;;;;;;;;;;;;;5065864;28;20327;-40
2023/05/23 18:11:05;;;;;;;;;;;;;;;;;;5070040;28;19920;-40
2023/05/23 18:13:31;;;;;;;;;;;;;;;;;;5070580;28;19916;-40
2023/05/23 18:15:57;;;;;;;;;;;;;;;;;;5069299;28;19912;-40
2023/05/23 18:18:23;;;;;;;;;;;;;;;;;;5068499;28;19966;-40
2023/05/23 18:20:49;;;;;;;;;;;;;;;;;;5068757;28;20342;-40
2023/05/23 18:23:17;;;;;;;;;;;;;;;;;;5069390;28;20367;-40
2023/05/23 18:25:44;;;;;;;;;;;;;;;;;;5068794;28;19952;-40
2023/05/23 18:28:10;;;;;;;;;;;;;;;;;;5068538;28;19917;-40
2023/05/23 18:30:35;;;;;;;;;;;;;;;;;;5068467;28;19938;-40
2023/05/23 18:33:01;;;;;;;;;;;;;;;;;;5068619;28;19912;-40
2023/05/23 18:35:27;;;;;;;;;;;;;;;;;;5068401;28;19982;-40
2023/05/23 18:37:53;;;;;;;;;;;;;;;;;;5068402;28;19915;-40
2023/05/23 18:40:22;;;;;;;;;;;;;;;;;;5068552;28;20300;-40
2023/05/23 18:42:49;;;;;;;;;;;;;;;;;;5069170;28;20007;-40
2023/05/23 18:45:15;;;;;;;;;;;;;;;;;;5069127;28;19998;-40
2023/05/23 18:47:41;;;;;;;;;;;;;;;;;;5068266;28;19927;-41
2023/05/23 18:50:07;;;;;;;;;;;;;;;;;;5068411;28;20385;-40
2023/05/23 18:52:36;;;;;;;;;;;;;;;;;;5068046;28;19916;-40
2023/05/23 18:55:01;;;;;;;;;;;;;;;;;;5068061;28;20306;-40
2023/05/23 18:57:27;;;;;;;;;;;;;;;;;;5068239;28;19919;-40
2023/05/23 18:59:53;;;;;;;;;;;;;;;;;;5067976;28;19916;-40
2023/05/23 19:02:19;;;;;;;;;;;;;;;;;;5067871;28;19963;-40
2023/05/23 19:04:45;;;;;;;;;;;;;;;;;;5068835;28;20010;-40
2023/05/23 19:07:11;;;;;;;;;;;;;;;;;;5067881;28;19912;-40
2023/05/23 19:09:37;;;;;;;;;;;;;;;;;;5067772;28;19967;-40
2023/05/23 19:12:02;;;;;;;;;;;;;;;;;;5067975;28;19909;-40
2023/05/23 19:14:28;;;;;;;;;;;;;;;;;;5067959;28;19956;-40
2023/05/23 19:16:54;;;;;;;;;;;;;;;;;;5067700;28;19916;-40
2023/05/23 19:19:20;;;;;;;;;;;;;;;;;;5068055;28;19913;-40
2023/05/23 19:21:46;;;;;;;;;;;;;;;;;;5068318;28;20387;-40
2023/05/23 19:24:12;;;;;;;;;;;;;;;;;;5067600;28;19909;-40
2023/05/23 19:26:41;;;;;;;;;;;;;;;;;;5067635;28;20170;-40
2023/05/23 19:29:07;;;;;;;;;;;;;;;;;;5067889;28;19919;-41
2023/05/23 19:31:34;;;;;;;;;;;;;;;;;;5067502;28;19908;-40
2023/05/23 19:34:00;;;;;;;;;;;;;;;;;;5067362;28;19916;-40
2023/05/23 19:36:26;;;;;;;;;;;;;;;;;;5067242;28;19974;-40
2023/05/23 19:38:52;;;;;;;;;;;;;;;;;;5067215;28;20406;-40
2023/05/23 19:41:18;;;;;;;;;;;;;;;;;;5067981;28;20213;-40
2023/05/23 19:43:44;;;;;;;;;;;;;;;;;;5067843;28;19963;-40
2023/05/23 19:46:10;;;;;;;;;;;;;;;;;;5067669;28;19950;-40
2023/05/23 19:48:36;;;;;;;;;;;;;;;;;;5067190;28;20296;-40
2023/05/23 19:51:01;;;;;;;;;;;;;;;;;;5066863;28;19909;-40
2023/05/23 19:53:27;;;;;;;;;;;;;;;;;;5066951;28;20529;-40
2023/05/23 19:55:53;;;;;;;;;;;;;;;;;;5067075;28;20003;-40
2023/05/23 19:58:20;;;;;;;;;;;;;;;;;;5066899;28;19911;-40
2023/05/23 20:00:46;;;;;;;;;;;;;;;;;;5067554;28;20286;-41
2023/05/23 20:03:13;;;;;;;;;;;;;;;;;;5066693;28;19904;-40
2023/05/23 20:05:39;;;;;;;;;;;;;;;;;;5066182;28;20405;-40
2023/05/23 20:08:05;;;;;;;;;;;;;;;;;;5066718;28;19913;-40
2023/05/23 20:10:32;;;;;;;;;;;;;;;;;;5066637;28;19928;-40
2023/05/23 20:12:57;;;;;;;;;;;;;;;;;;5066668;28;20411;-40
2023/05/23 20:15:24;;;;;;;;;;;;;;;;;;5066641;28;19908;-40
2023/05/23 20:17:50;;;;;;;;;;;;;;;;;;5066449;28;19919;-40
2023/05/23 20:20:17;;;;;;;;;;;;;;;;;;5066960;28;19932;-40
2023/05/23 20:22:42;;;;;;;;;;;;;;;;;;5066529;28;19916;-40
2023/05/23 20:25:09;;;;;;;;;;;;;;;;;;5062674;28;19917;-40
2023/05/23 20:27:36;;;;;;;;;;;;;;;;;;5057757;28;19959;-40
2023/05/23 20:30:02;;;;;;;;;;;;;;;;;;5055454;28;19927;-40
2023/05/23 20:32:28;;;;;;;;;;;;;;;;;;5067674;28;19962;-40
2023/05/23 20:34:54;;;;;;;;;;;;;;;;;;5058968;28;19913;-40
2023/05/23 20:37:20;;;;;;;;;;;;;;;;;;5075813;28;19912;-40
2023/05/23 20:39:47;;;;;;;;;;;;;;;;;;5066721;28;20434;-41
2023/05/23 20:42:13;;;;;;;;;;;;;;;;;;5060728;28;20363;-41
2023/05/23 20:44:39;;;;;;;;;;;;;;;;;;5055180;28;19916;-40
2023/05/23 20:47:05;;;;;;;;;;;;;;;;;;5078415;28;19920;-40
2023/05/23 20:49:32;;;;;;;;;;;;;;;;;;5059739;28;19920;-40
2023/05/23 20:51:59;;;;;;;;;;;;;;;;;;5069454;28;19952;-40
2023/05/23 20:54:24;;;;;;;;;;;;;;;;;;5062500;28;19920;-40
2023/05/23 20:56:53;;;;;;;;;;;;;;;;;;5055716;28;19909;-41
2023/05/23 20:59:19;;;;;;;;;;;;;;;;;;5064813;28;20379;-40
2023/05/23 21:01:46;;;;;;;;;;;;;;;;;;5064863;28;19908;-40
2023/05/23 21:04:12;;;;;;;;;;;;;;;;;;5062786;28;19908;-40
2023/05/23 21:06:38;;;;;;;;;;;;;;;;;;5063447;28;19931;-40
2023/05/23 21:09:04;;;;;;;;;;;;;;;;;;5055922;28;20306;-40
2023/05/23 21:11:30;;;;;;;;;;;;;;;;;;5064878;28;20399;-41
2023/05/23 21:13:57;;;;;;;;;;;;;;;;;;5064482;28;20034;-40
2023/05/23 21:16:24;;;;;;;;;;;;;;;;;;5064857;28;20498;-41
2023/05/23 21:18:50;;;;;;;;;;;;;;;;;;5062951;28;19909;-40
2023/05/23 21:21:16;;;;;;;;;;;;;;;;;;5047317;28;19913;-40
2023/05/23 21:23:42;;;;;;;;;;;;;;;;;;5064351;28;19939;-40
2023/05/23 21:26:08;;;;;;;;;;;;;;;;;;5064654;28;20246;-40
2023/05/23 21:28:35;;;;;;;;;;;;;;;;;;5064701;28;20015;-40
2023/05/23 21:31:02;;;;;;;;;;;;;;;;;;5063452;28;19920;-40
2023/05/23 21:33:27;;;;;;;;;;;;;;;;;;5064147;28;19908;-40
2023/05/23 21:35:53;;;;;;;;;;;;;;;;;;5064167;28;19908;-40
2023/05/23 21:38:19;;;;;;;;;;;;;;;;;;5061132;28;19947;-40
2023/05/23 21:40:45;;;;;;;;;;;;;;;;;;5056936;28;19909;-40
2023/05/23 21:43:11;;;;;;;;;;;;;;;;;;5044295;28;19917;-40